createdAt,value
2023-04-25T00:00:08.172Z,94.60
2023-04-25T00:02:39.355Z,94.90
2023-04-25T00:05:07.261Z,94.70
2023-04-25T00:07:35.959Z,94.70
2023-04-25T00:10:04.000Z,94.70
2023-04-25T00:12:31.208Z,94.90
2023-04-25T00:14:58.512Z,94.90
2023-04-25T00:17:26.039Z,94.90
2023-04-25T00:19:55.734Z,94.90
2023-04-25T00:22:25.452Z,94.90
2023-04-25T00:24:54.503Z,95.00
2023-04-25T00:27:21.761Z,95.00
2023-04-25T00:29:51.362Z,95.00
2023-04-25T00:32:18.841Z,95.00
2023-04-25T00:34:45.995Z,95.00
2023-04-25T00:37:13.858Z,95.10
2023-04-25T00:39:44.335Z,95.10
2023-04-25T00:42:17.394Z,95.10
2023-04-25T00:44:48.512Z,95.10
2023-04-25T00:47:17.153Z,95.10
2023-04-25T00:49:49.600Z,95.10
2023-04-25T00:52:17.012Z,95.10
2023-04-25T00:54:46.722Z,95.10
2023-04-25T00:57:16.703Z,95.00
2023-04-25T00:59:47.580Z,95.00
2023-04-25T01:02:22.563Z,95.00
2023-04-25T01:04:50.464Z,95.00
2023-04-25T01:07:17.802Z,95.10
2023-04-25T01:09:45.174Z,95.10
2023-04-25T01:12:16.450Z,95.10
2023-04-25T01:14:43.634Z,95.20
2023-04-25T01:17:11.544Z,95.20
2023-04-25T01:19:39.082Z,95.30
2023-04-25T01:22:06.414Z,95.30
2023-04-25T01:24:34.295Z,95.30
2023-04-25T01:27:06.955Z,95.30
2023-04-25T01:29:41.552Z,95.30
2023-04-25T01:32:09.507Z,95.30
2023-04-25T01:34:36.901Z,95.30
2023-04-25T01:37:04.085Z,95.30
2023-04-25T01:39:31.305Z,95.30
2023-04-25T01:42:02.858Z,95.20
2023-04-25T01:44:33.966Z,95.30
2023-04-25T01:47:01.274Z,95.30
2023-04-25T01:49:30.189Z,95.30
2023-04-25T01:51:57.805Z,95.30
2023-04-25T01:54:25.008Z,95.20
2023-04-25T01:56:53.076Z,95.20
2023-04-25T01:59:22.976Z,95.20
2023-04-25T02:02:15.905Z,95.20
2023-04-25T02:04:49.474Z,95.20
2023-04-25T02:07:16.984Z,95.10
2023-04-25T02:09:50.935Z,95.20
2023-04-25T02:12:23.916Z,95.20
2023-04-25T02:15:05.548Z,95.20
2023-04-25T02:17:45.686Z,95.20
2023-04-25T02:20:13.700Z,95.20
2023-04-25T02:22:46.465Z,95.20
2023-04-25T02:25:18.541Z,95.20
2023-04-25T02:27:47.325Z,95.20
2023-04-25T02:30:17.480Z,95.20
2023-04-25T02:37:03.776Z,95.20
2023-04-25T02:39:30.992Z,95.10
2023-04-25T02:41:58.075Z,95.10
2023-04-25T02:44:25.227Z,95.10
2023-04-25T02:46:52.352Z,95.10
2023-04-25T02:49:19.526Z,95.20
2023-04-25T02:51:46.743Z,95.20
2023-04-25T02:54:13.972Z,95.20
2023-04-25T02:56:44.568Z,95.20
2023-04-25T02:59:22.993Z,95.20
2023-04-25T03:01:50.418Z,95.30
2023-04-25T03:04:20.471Z,95.30
2023-04-25T03:06:48.607Z,95.30
2023-04-25T03:09:16.088Z,95.20
2023-04-25T03:11:43.729Z,95.30
2023-04-25T03:14:11.135Z,95.30
2023-04-25T03:16:38.356Z,95.30
2023-04-25T03:19:05.748Z,95.30
2023-04-25T03:21:34.527Z,95.40
2023-04-25T03:24:03.553Z,95.40
2023-04-25T03:26:33.411Z,95.40
2023-04-25T03:29:00.871Z,95.40
2023-04-25T03:31:34.879Z,95.40
2023-04-25T03:34:02.216Z,95.40
2023-04-25T03:36:29.529Z,95.40
2023-04-25T03:38:59.938Z,95.40
2023-04-25T03:41:31.790Z,95.40
2023-04-25T03:44:04.777Z,95.40
2023-04-25T03:46:34.539Z,95.50
2023-04-25T03:49:01.853Z,95.40
2023-04-25T03:51:45.343Z,95.40
2023-04-25T03:54:12.423Z,95.30
2023-04-25T03:56:56.257Z,95.30
2023-04-25T03:59:27.325Z,95.20
2023-04-25T04:01:57.316Z,95.20
2023-04-25T04:04:30.316Z,95.20
2023-04-25T04:06:57.956Z,95.30
2023-04-25T04:09:28.750Z,95.30
2023-04-25T04:11:57.594Z,95.40
2023-04-25T04:14:24.775Z,95.40
2023-04-25T04:16:53.470Z,95.40
2023-04-25T04:19:21.546Z,95.50
2023-04-25T04:21:57.093Z,95.50
2023-04-25T04:24:27.398Z,95.50
2023-04-25T04:27:01.970Z,95.50
2023-04-25T04:29:38.040Z,95.50
2023-04-25T04:32:16.276Z,95.50
2023-04-25T04:34:43.528Z,95.80
2023-04-25T04:37:16.925Z,95.50
2023-04-25T04:39:44.363Z,95.50
2023-04-25T04:42:29.236Z,95.50
2023-04-25T04:45:17.214Z,95.40
2023-04-25T04:47:57.990Z,95.40
2023-04-25T04:50:49.890Z,95.30
2023-04-25T04:53:28.816Z,95.30
2023-04-25T04:56:09.032Z,95.20
2023-04-25T04:58:54.608Z,95.20
2023-04-25T05:01:21.764Z,95.10
2023-04-25T05:04:02.148Z,95.00
2023-04-25T05:06:49.162Z,94.90
2023-04-25T05:09:36.723Z,94.80
2023-04-25T05:12:23.385Z,94.90
2023-04-25T05:14:56.154Z,94.90
2023-04-25T05:17:41.728Z,94.90
2023-04-25T05:20:27.667Z,94.90
2023-04-25T05:23:03.757Z,94.90
2023-04-25T05:25:50.619Z,94.90
2023-04-25T05:28:43.833Z,94.80
2023-04-25T05:31:40.371Z,94.80
2023-04-25T05:34:13.805Z,94.70
2023-04-25T05:37:01.358Z,94.70
2023-04-25T05:39:32.238Z,94.60
2023-04-25T05:42:17.105Z,94.60
2023-04-25T05:44:49.964Z,94.60
2023-04-25T05:47:35.229Z,94.60
2023-04-25T05:50:08.501Z,94.60
2023-04-25T05:52:49.090Z,94.60
2023-04-25T05:55:26.209Z,94.60
2023-04-25T05:57:54.381Z,94.60
2023-04-25T06:00:23.875Z,94.60
2023-04-25T06:02:51.681Z,94.60
2023-04-25T06:05:20.177Z,94.70
2023-04-25T06:07:48.521Z,94.60
2023-04-25T06:10:16.124Z,94.60
2023-04-25T06:12:43.960Z,94.50
2023-04-25T06:15:24.221Z,94.40
2023-04-25T06:17:57.813Z,94.40
2023-04-25T06:20:25.720Z,94.40
2023-04-25T06:22:55.207Z,94.30
2023-04-25T06:25:29.437Z,94.20
2023-04-25T06:27:57.047Z,94.20
2023-04-25T06:30:25.967Z,94.10
2023-04-25T06:33:02.915Z,93.90
2023-04-25T06:35:35.455Z,93.80
2023-04-25T06:38:02.786Z,93.80
2023-04-25T06:40:31.365Z,93.80
2023-04-25T06:43:01.492Z,93.80
2023-04-25T06:45:57.859Z,93.80
2023-04-25T06:48:29.043Z,93.70
2023-04-25T06:50:57.575Z,93.60
2023-04-25T06:53:25.347Z,93.50
2023-04-25T06:55:58.802Z,93.40
2023-04-25T06:58:30.962Z,93.30
2023-04-25T07:01:10.592Z,93.30
2023-04-25T07:03:39.298Z,93.20
2023-04-25T07:06:11.617Z,93.10
2023-04-25T07:08:39.279Z,93.00
2023-04-25T07:11:06.593Z,93.00
2023-04-25T07:13:33.834Z,92.90
2023-04-25T07:16:01.622Z,92.90
2023-04-25T07:18:33.980Z,93.00
2023-04-25T07:21:01.884Z,92.90
2023-04-25T07:23:29.838Z,92.90
2023-04-25T07:25:59.832Z,92.80
2023-04-25T07:28:37.724Z,92.60
2023-04-25T07:31:12.765Z,92.40
2023-04-25T07:33:45.572Z,92.30
2023-04-25T07:36:13.600Z,92.20
2023-04-25T07:38:41.055Z,92.00
2023-04-25T07:41:08.702Z,91.60
2023-04-25T07:43:40.389Z,91.50
2023-04-25T07:46:18.129Z,91.50
2023-04-25T07:48:45.588Z,91.30
2023-04-25T07:51:12.834Z,91.20
2023-04-25T07:53:41.706Z,91.10
2023-04-25T07:56:15.608Z,91.10
2023-04-25T07:58:45.965Z,90.80
2023-04-25T08:01:16.022Z,90.80
2023-04-25T08:04:07.657Z,90.90
2023-04-25T08:06:48.927Z,90.80
2023-04-25T08:09:30.473Z,90.70
2023-04-25T08:11:58.785Z,90.60
2023-04-25T08:14:38.344Z,90.50
2023-04-25T08:17:06.554Z,90.50
2023-04-25T08:19:36.768Z,90.30
2023-04-25T08:22:20.215Z,90.10
2023-04-25T08:24:56.082Z,89.30
2023-04-25T08:27:23.556Z,88.30
2023-04-25T08:30:01.351Z,86.60
2023-04-25T08:32:30.793Z,87.10
2023-04-25T08:35:27.818Z,87.10
2023-04-25T08:37:55.229Z,86.10
2023-04-25T08:40:27.536Z,85.50
2023-04-25T08:43:07.272Z,84.70
2023-04-25T08:45:44.311Z,84.30
2023-04-25T08:48:18.125Z,83.80
2023-04-25T08:50:56.630Z,83.50
2023-04-25T08:53:33.894Z,84.20
2023-04-25T08:56:07.080Z,84.00
2023-04-25T08:58:37.673Z,83.60
2023-04-25T09:01:05.339Z,83.20
2023-04-25T09:03:43.236Z,83.10
2023-04-25T09:06:14.605Z,83.10
2023-04-25T09:08:45.690Z,83.50
2023-04-25T09:11:17.507Z,83.50
2023-04-25T09:13:47.008Z,83.70
2023-04-25T09:16:27.498Z,83.70
2023-04-25T09:19:42.081Z,83.90
2023-04-25T09:22:28.393Z,82.50
2023-04-25T09:25:01.279Z,82.90
2023-04-25T09:27:30.087Z,82.50
2023-04-25T09:30:06.033Z,81.60
2023-04-25T09:32:52.147Z,81.20
2023-04-25T09:35:29.902Z,80.70
2023-04-25T09:38:00.527Z,80.50
2023-04-25T09:40:48.409Z,80.20
2023-04-25T09:43:28.965Z,77.40
2023-04-25T09:46:00.487Z,75.70
2023-04-25T09:48:29.916Z,76.60
2023-04-25T09:51:11.397Z,77.40
2023-04-25T09:53:53.212Z,77.50
2023-04-25T09:56:38.826Z,75.90
2023-04-25T09:59:11.327Z,75.10
2023-04-25T10:01:45.353Z,74.90
2023-04-25T10:04:34.165Z,74.60
2023-04-25T10:07:10.242Z,75.00
2023-04-25T10:09:40.708Z,74.70
2023-04-25T10:12:15.308Z,73.60
2023-04-25T10:14:51.870Z,73.70
2023-04-25T10:17:23.466Z,73.40
2023-04-25T10:19:50.604Z,73.20
2023-04-25T10:22:40.588Z,73.70
2023-04-25T10:25:11.032Z,71.40
2023-04-25T10:27:38.417Z,72.10
2023-04-25T10:30:16.998Z,71.10
2023-04-25T10:32:44.819Z,71.50
2023-04-25T10:35:25.671Z,69.70
2023-04-25T10:38:19.648Z,69.10
2023-04-25T10:41:17.628Z,68.70
2023-04-25T10:43:46.605Z,68.70
2023-04-25T10:46:31.533Z,69.50
2023-04-25T10:49:00.674Z,70.90
2023-04-25T10:51:51.431Z,71.90
2023-04-25T10:54:26.186Z,72.50
2023-04-25T10:56:54.375Z,73.00
2023-04-25T10:59:27.001Z,72.80
2023-04-25T11:02:14.650Z,73.00
2023-04-25T11:04:43.753Z,72.50
2023-04-25T11:07:33.415Z,72.70
2023-04-25T11:10:04.815Z,72.60
2023-04-25T11:12:34.091Z,72.10
2023-04-25T11:15:10.597Z,72.10
2023-04-25T11:18:46.668Z,72.10
2023-04-25T11:26:12.927Z,71.80
2023-04-25T11:32:42.518Z,69.50
2023-04-25T11:35:15.857Z,69.50
2023-04-25T11:37:49.112Z,68.10
2023-04-25T11:40:19.261Z,66.90
2023-04-25T11:43:02.936Z,65.30
2023-04-25T11:45:31.838Z,64.10
2023-04-25T11:48:10.850Z,62.90
2023-04-25T11:50:54.898Z,62.50
2023-04-25T11:53:22.200Z,62.30
2023-04-25T11:55:56.960Z,62.60
2023-04-25T11:58:40.028Z,62.20
2023-04-25T12:01:07.030Z,62.80
2023-04-25T12:03:47.458Z,62.00
2023-04-25T12:06:19.098Z,61.40
2023-04-25T12:09:17.030Z,61.20
2023-04-25T12:12:06.982Z,60.70
2023-04-25T12:14:36.884Z,60.40
2023-04-25T12:17:15.328Z,60.70
2023-04-25T12:19:48.347Z,61.40
2023-04-25T12:22:24.942Z,61.10
2023-04-25T12:24:55.308Z,62.90
2023-04-25T12:27:22.789Z,63.70
2023-04-25T12:30:01.280Z,64.80
2023-04-25T12:32:31.930Z,65.20
2023-04-25T12:34:59.332Z,66.50
2023-04-25T12:37:26.429Z,67.30
2023-04-25T12:39:56.471Z,67.50
2023-04-25T12:42:55.819Z,67.50
2023-04-25T12:45:24.238Z,67.10
2023-04-25T12:47:51.369Z,66.40
2023-04-25T12:50:18.490Z,66.70
2023-04-25T12:54:10.711Z,66.70
2023-04-25T12:56:43.108Z,66.50
2023-04-25T12:59:10.610Z,66.10
2023-04-25T13:02:40.242Z,65.70
2023-04-25T13:05:08.866Z,65.20
2023-04-25T13:07:45.946Z,65.00
2023-04-25T13:10:19.439Z,65.10
2023-04-25T13:13:05.496Z,64.60
2023-04-25T13:15:34.588Z,63.30
2023-04-25T13:18:02.127Z,64.50
2023-04-25T13:20:29.182Z,63.50
2023-04-25T13:23:34.243Z,61.20
2023-04-25T13:30:17.996Z,62.40
2023-04-25T13:32:45.119Z,63.50
2023-04-25T13:39:19.477Z,62.20
2023-04-25T13:41:46.731Z,60.00
2023-04-25T13:44:13.867Z,61.00
2023-04-25T13:46:47.014Z,61.70
2023-04-25T13:49:17.671Z,62.00
2023-04-25T13:51:44.907Z,62.20
2023-04-25T13:54:15.179Z,61.70
2023-04-25T13:56:43.350Z,61.50
2023-04-25T13:59:11.055Z,61.30
2023-04-25T14:01:40.197Z,61.10
2023-04-25T14:04:07.456Z,61.30
2023-04-25T14:06:35.285Z,61.60
2023-04-25T14:09:02.485Z,61.80
2023-04-25T14:11:29.465Z,61.30
2023-04-25T14:13:59.111Z,60.90
2023-04-25T14:16:26.419Z,60.80
2023-04-25T14:18:53.621Z,60.60
2023-04-25T14:21:21.987Z,61.20
2023-04-25T14:23:49.472Z,60.60
2023-04-25T14:26:17.439Z,61.30
2023-04-25T14:28:45.844Z,61.50
2023-04-25T14:31:14.380Z,61.50
2023-04-25T14:33:43.798Z,60.90
2023-04-25T14:36:11.652Z,60.20
2023-04-25T14:38:38.861Z,60.30
2023-04-25T14:41:06.088Z,60.70
2023-04-25T14:43:33.067Z,59.60
2023-04-25T14:46:00.385Z,58.60
2023-04-25T14:48:30.011Z,57.50
2023-04-25T14:50:57.777Z,55.50
2023-04-25T14:53:25.110Z,54.20
2023-04-25T14:55:52.076Z,52.90
2023-04-25T14:58:19.219Z,52.00
2023-04-25T15:00:46.510Z,53.30
2023-04-25T15:03:14.738Z,54.10
2023-04-25T15:05:41.852Z,55.10
2023-04-25T15:08:09.481Z,56.60
2023-04-25T15:10:36.473Z,57.60
2023-04-25T15:13:04.265Z,57.40
2023-04-25T15:15:31.338Z,57.50
2023-04-25T15:18:02.035Z,57.80
2023-04-25T15:20:29.772Z,57.80
2023-04-25T15:22:56.780Z,57.20
2023-04-25T15:25:24.183Z,54.90
2023-04-25T15:27:52.855Z,54.70
2023-04-25T15:30:20.557Z,55.10
2023-04-25T15:32:48.725Z,55.90
2023-04-25T15:35:16.374Z,57.10
2023-04-25T15:37:43.685Z,57.80
2023-04-25T15:40:17.688Z,58.80
2023-04-25T15:42:51.846Z,59.40
2023-04-25T15:45:20.738Z,59.80
2023-04-25T15:47:48.313Z,60.20
2023-04-25T15:50:16.259Z,60.30
2023-04-25T15:52:46.709Z,59.70
2023-04-25T15:56:09.290Z,58.80
2023-04-25T15:58:36.562Z,56.20
2023-04-25T16:01:05.182Z,54.00
2023-04-25T16:03:48.459Z,52.90
2023-04-25T16:06:15.721Z,51.70
2023-04-25T16:08:55.876Z,50.60
2023-04-25T16:11:28.260Z,50.70
2023-04-25T16:14:00.798Z,50.10
2023-04-25T16:16:27.991Z,49.40
2023-04-25T16:18:55.339Z,49.40
2023-04-25T16:22:27.679Z,49.10
2023-04-25T16:24:54.815Z,47.20
2023-04-25T16:27:22.130Z,47.40
2023-04-25T16:29:51.669Z,47.70
2023-04-25T16:32:18.725Z,46.80
2023-04-25T16:34:47.929Z,46.90
2023-04-25T16:37:17.935Z,47.00
2023-04-25T16:39:45.066Z,45.70
2023-04-25T16:42:12.116Z,46.40
2023-04-25T16:44:42.310Z,45.80
2023-04-25T16:51:09.184Z,46.60
2023-04-25T16:53:36.452Z,47.50
2023-04-25T16:56:04.106Z,47.70
2023-04-25T16:58:31.176Z,46.60
2023-04-25T17:01:26.617Z,45.30
2023-04-25T17:03:54.094Z,46.30
2023-04-25T17:06:21.572Z,46.00
2023-04-25T17:08:48.691Z,46.50
2023-04-25T17:11:15.974Z,48.20
2023-04-25T17:13:44.165Z,50.10
2023-04-25T17:16:12.903Z,52.20
2023-04-25T17:18:45.196Z,53.70
2023-04-25T17:22:32.822Z,54.50
2023-04-25T17:25:03.914Z,54.20
2023-04-25T17:27:42.417Z,54.00
2023-04-25T17:31:42.620Z,54.40
2023-04-25T17:34:39.134Z,54.90
2023-04-25T17:37:15.085Z,55.70
2023-04-25T17:39:44.505Z,56.30
2023-04-25T17:42:14.671Z,56.60
2023-04-25T17:44:42.618Z,57.10
2023-04-25T17:47:10.294Z,57.60
2023-04-25T17:49:37.555Z,58.20
2023-04-25T17:52:05.260Z,58.50
2023-04-25T17:54:34.877Z,58.70
2023-04-25T17:57:02.685Z,59.00
2023-04-25T17:59:33.048Z,59.20
2023-04-25T18:02:21.153Z,59.20
2023-04-25T18:04:49.803Z,59.40
2023-04-25T18:07:23.513Z,59.70
2023-04-25T18:09:50.876Z,60.00
2023-04-25T18:12:18.570Z,60.10
2023-04-25T18:14:48.221Z,60.30
2023-04-25T18:17:20.652Z,60.40
2023-04-25T18:22:33.582Z,60.60
2023-04-25T18:25:09.893Z,61.00
2023-04-25T18:27:41.240Z,61.20
2023-04-25T18:30:11.060Z,61.40
2023-04-25T18:32:40.761Z,61.50
2023-04-25T18:44:29.619Z,62.40
2023-04-25T18:47:06.920Z,62.70
2023-04-25T18:49:37.389Z,63.10
2023-04-25T18:52:05.262Z,63.20
2023-04-25T18:54:35.085Z,63.30
2023-04-25T18:57:09.147Z,63.50
2023-04-25T18:59:36.210Z,63.80
2023-04-25T19:02:07.266Z,64.00
2023-04-25T19:05:07.443Z,64.40
2023-04-25T19:07:34.946Z,64.50
2023-04-25T19:10:22.027Z,64.80
2023-04-25T19:12:55.293Z,65.10
2023-04-25T19:15:39.880Z,65.20
2023-04-25T19:18:07.419Z,65.30
2023-04-25T19:21:12.574Z,65.40
2023-04-25T19:24:01.578Z,65.60
2023-04-25T19:26:28.924Z,65.80
2023-04-25T19:29:10.572Z,66.00
2023-04-25T19:31:58.781Z,66.20
2023-04-25T19:34:26.220Z,66.50
2023-04-25T19:36:54.369Z,66.80
2023-04-25T19:39:22.849Z,67.00
2023-04-25T19:41:50.088Z,67.20
2023-04-25T19:44:24.873Z,67.40
2023-04-25T19:46:54.481Z,67.50
2023-04-25T19:49:22.225Z,68.00
2023-04-25T19:51:49.339Z,68.10
2023-04-25T19:54:23.387Z,68.90
2023-04-25T19:56:55.054Z,68.50
2023-04-25T19:59:29.681Z,68.80
2023-04-25T20:01:57.077Z,69.10
2023-04-25T20:04:30.672Z,69.20
2023-04-25T20:07:00.992Z,69.40
2023-04-25T20:09:28.282Z,69.60
2023-04-25T20:12:03.260Z,69.80
2023-04-25T20:14:33.205Z,70.00
2023-04-25T20:17:00.884Z,70.20
2023-04-25T20:19:32.754Z,70.30
2023-04-25T20:21:59.835Z,70.50
2023-04-25T20:24:29.708Z,70.60
2023-04-25T20:27:24.077Z,70.70
2023-04-25T20:30:23.302Z,71.10
2023-04-25T20:32:50.467Z,71.30
2023-04-25T20:35:17.841Z,71.40
2023-04-25T20:37:45.436Z,71.50
2023-04-25T20:40:16.257Z,71.70
2023-04-25T20:42:46.503Z,71.90
2023-04-25T20:45:17.804Z,72.00
2023-04-25T20:47:45.003Z,72.20
2023-04-25T20:50:14.215Z,72.30
2023-04-25T20:52:44.747Z,72.40
2023-04-25T20:55:18.726Z,72.60
2023-04-25T20:57:46.024Z,72.60
2023-04-25T21:00:28.024Z,72.80
2023-04-25T21:02:57.032Z,72.90
2023-04-25T21:05:48.514Z,73.30
2023-04-25T21:08:23.313Z,73.30
2023-04-25T21:10:50.548Z,73.60
2023-04-25T21:13:24.883Z,73.80
2023-04-25T21:16:12.497Z,74.00
2023-04-25T21:18:39.566Z,74.30
2023-04-25T21:21:06.804Z,74.40
2023-04-25T21:23:34.046Z,74.40
2023-04-25T21:30:44.123Z,74.50
2023-04-25T21:33:15.734Z,74.70
2023-04-25T21:35:50.856Z,74.80
2023-04-25T21:38:52.584Z,75.20
2023-04-25T21:46:31.040Z,75.20
2023-04-25T21:49:01.427Z,75.30
2023-04-25T21:51:44.795Z,75.50
2023-04-25T21:54:18.097Z,75.60
2023-04-25T21:56:45.368Z,75.80
2023-04-25T21:59:25.287Z,76.00
2023-04-25T22:01:56.277Z,76.10
2023-04-25T22:04:23.756Z,76.30
2023-04-25T22:07:01.508Z,76.50
2023-04-25T22:09:34.628Z,76.50
2023-04-25T22:12:08.209Z,76.70
2023-04-25T22:18:53.324Z,76.80
2023-04-25T22:21:39.596Z,76.90
2023-04-25T22:24:06.950Z,77.20
2023-04-25T22:26:34.617Z,77.40
2023-04-25T22:29:02.998Z,77.40
2023-04-25T22:31:30.613Z,77.50
2023-04-25T22:33:57.860Z,77.60
2023-04-25T22:36:25.066Z,77.60
2023-04-25T22:38:53.077Z,77.80
2023-04-25T22:41:20.970Z,78.00
2023-04-25T22:43:47.881Z,78.20
2023-04-25T22:46:18.948Z,78.20
2023-04-25T22:48:47.222Z,78.40
2023-04-25T22:51:14.666Z,78.40
2023-04-25T22:53:45.504Z,78.40
2023-04-25T22:56:12.933Z,78.50
2023-04-25T22:58:43.496Z,78.70
2023-04-25T23:01:11.507Z,78.70
2023-04-25T23:03:40.197Z,78.90
2023-04-25T23:06:07.924Z,78.80
2023-04-25T23:08:35.268Z,78.90
2023-04-25T23:11:08.971Z,79.10
2023-04-25T23:13:38.914Z,79.00
2023-04-25T23:16:10.940Z,79.20
2023-04-25T23:18:39.219Z,79.90
2023-04-25T23:21:11.578Z,79.40
2023-04-25T23:23:41.284Z,79.50
2023-04-25T23:26:11.857Z,79.50
2023-04-25T23:28:41.425Z,79.60
2023-04-25T23:31:10.361Z,79.80
2023-04-25T23:33:37.533Z,80.00
2023-04-25T23:36:05.086Z,80.00
2023-04-25T23:38:32.863Z,80.10
2023-04-25T23:40:59.987Z,80.30
2023-04-25T23:43:26.983Z,80.30
2023-04-25T23:45:55.389Z,80.50
2023-04-25T23:48:23.088Z,80.50
2023-04-25T23:50:50.120Z,80.40
2023-04-25T23:53:17.049Z,80.70
2023-04-25T23:55:44.194Z,80.70
2023-04-25T23:58:11.215Z,80.70
